Time;durP1;ratioP1;P1;durP2;ratioP2;P2;SDS_P1;SDS_P2;PMS_P1;PMS_P2;Temp;Humidity;BMP_temperature;BMP_pressure;BME280_temperature;BME280_humidity;BME280_pressure;Samples;Min_cycle;Max_cycle;Signal;HPM_P1;HPM_P2
2021/11/10 00:02:25;;;;;;;4.80;3.77;;;9.00;99.90;;;;;;5017997;28;20441;-45
2021/11/10 00:04:50;;;;;;;5.10;3.53;;;8.80;99.90;;;;;;5016818;28;20638;-44
2021/11/10 00:07:16;;;;;;;5.17;3.43;;;9.00;99.90;;;;;;5021071;28;20206;-45
2021/11/10 00:09:42;;;;;;;5.00;3.80;;;8.80;99.90;;;;;;5007304;28;20821;-44
2021/11/10 00:12:08;;;;;;;6.00;3.80;;;8.90;99.90;;;;;;5019724;28;20707;-44
2021/11/10 00:14:34;;;;;;;6.07;3.70;;;9.00;99.90;;;;;;5007099;28;20199;-46
2021/11/10 00:17:01;;;;;;;6.10;3.63;;;8.90;99.90;;;;;;5012941;28;20194;-45
2021/11/10 00:19:27;;;;;;;4.70;2.93;;;8.80;99.90;;;;;;5013292;28;20453;-46
2021/11/10 00:21:52;;;;;;;4.10;3.20;;;8.80;99.90;;;;;;5020421;28;20422;-45
2021/11/10 00:24:19;;;;;;;4.27;3.37;;;8.60;99.90;;;;;;5010802;28;20488;-45
2021/11/10 00:26:45;;;;;;;4.60;3.50;;;8.60;99.90;;;;;;5018309;28;20252;-48
2021/11/10 00:29:10;;;;;;;4.67;4.03;;;8.70;99.90;;;;;;5023594;28;20897;-46
2021/11/10 00:31:36;;;;;;;3.90;2.80;;;8.60;99.90;;;;;;5010438;28;20434;-44
2021/11/10 00:34:02;;;;;;;4.97;3.33;;;8.70;99.90;;;;;;5017692;28;20278;-45
2021/11/10 00:36:28;;;;;;;6.70;4.00;;;8.80;99.90;;;;;;5023715;28;20197;-44
2021/11/10 00:38:53;;;;;;;4.53;3.70;;;8.80;99.90;;;;;;5023412;28;20785;-45
2021/11/10 00:41:19;;;;;;;5.00;3.60;;;8.90;99.90;;;;;;5014428;28;20606;-44
2021/11/10 00:43:45;;;;;;;6.10;3.93;;;8.60;99.90;;;;;;5010320;28;20198;-46
2021/11/10 00:46:10;;;;;;;6.50;3.93;;;8.70;99.90;;;;;;5010292;28;20422;-46
2021/11/10 00:48:37;;;;;;;5.90;3.80;;;8.50;99.90;;;;;;5016463;28;20225;-44
2021/11/10 00:51:03;;;;;;;5.70;3.80;;;8.70;99.90;;;;;;5021398;28;20232;-45
2021/11/10 00:53:29;;;;;;;5.67;3.90;;;8.60;99.90;;;;;;5017942;28;20491;-45
2021/11/10 00:55:54;;;;;;;6.67;3.37;;;8.60;99.90;;;;;;5024478;28;20433;-46
2021/11/10 00:58:20;;;;;;;5.33;3.93;;;8.50;99.90;;;;;;5021491;28;20673;-47
2021/11/10 01:00:46;;;;;;;5.93;3.83;;;8.40;99.90;;;;;;5010596;28;20195;-44
2021/11/10 01:03:13;;;;;;;5.43;3.20;;;8.60;99.90;;;;;;5015240;28;20243;-48
2021/11/10 01:05:39;;;;;;;9.03;3.37;;;8.60;99.90;;;;;;5014516;28;20452;-45
2021/11/10 01:08:05;;;;;;;7.53;3.60;;;8.60;99.90;;;;;;5012272;28;20519;-45
2021/11/10 01:10:31;;;;;;;6.80;3.93;;;8.40;99.90;;;;;;5010574;28;20465;-45
2021/11/10 01:12:57;;;;;;;3.90;3.50;;;8.50;99.90;;;;;;5018164;28;21042;-45
2021/11/10 01:15:24;;;;;;;4.37;3.53;;;8.60;99.90;;;;;;5009978;28;20929;-45
2021/11/10 01:17:50;;;;;;;4.20;3.30;;;8.30;99.90;;;;;;5017801;28;20984;-45
2021/11/10 01:20:16;;;;;;;5.30;4.50;;;8.10;99.90;;;;;;5024476;28;20422;-45
2021/11/10 01:22:42;;;;;;;5.13;3.90;;;8.00;99.90;;;;;;5027954;28;20967;-45
2021/11/10 01:25:09;;;;;;;5.53;3.60;;;8.10;99.90;;;;;;5015118;28;20282;-45
2021/11/10 01:27:36;;;;;;;4.73;3.63;;;8.30;99.90;;;;;;5014665;28;20496;-45
2021/11/10 01:30:07;;;;;;;4.73;4.17;;;8.30;99.90;;;;;;5009510;28;20470;-46
2021/11/10 01:32:33;;;;;;;4.70;3.80;;;8.10;99.90;;;;;;5009407;28;20481;-45
2021/11/10 01:34:59;;;;;;;4.90;3.63;;;8.30;99.90;;;;;;5017848;28;20441;-44
2021/11/10 01:37:24;;;;;;;5.07;3.50;;;8.30;99.90;;;;;;5025458;28;20179;-45
2021/11/10 01:39:50;;;;;;;4.43;3.80;;;8.20;99.90;;;;;;5009744;28;20730;-45
2021/11/10 01:42:16;;;;;;;5.60;3.70;;;8.20;99.90;;;;;;5010107;28;20203;-44
2021/11/10 01:44:41;;;;;;;4.80;3.60;;;8.20;99.90;;;;;;5008626;28;20199;-45
2021/11/10 01:47:12;;;;;;;7.30;4.17;;;8.30;99.90;;;;;;5009704;28;20265;-44
2021/11/10 01:49:41;;;;;;;4.80;3.27;;;8.00;99.90;;;;;;5017304;28;20313;-46
2021/11/10 01:52:09;;;;;;;4.97;3.40;;;8.10;99.90;;;;;;5021858;28;20947;-45
2021/11/10 01:54:36;;;;;;;3.63;3.23;;;8.30;99.90;;;;;;5011676;28;20428;-44
2021/11/10 01:57:04;;;;;;;7.83;4.10;;;8.20;99.90;;;;;;5028889;28;20453;-44
2021/11/10 01:59:43;;;;;;;4.60;3.50;;;8.20;99.90;;;;;;5012695;28;20430;-46
2021/11/10 02:02:27;;;;;;;7.50;3.70;;;8.30;99.90;;;;;;5009539;28;20429;-44
2021/11/10 02:04:54;;;;;;;5.47;3.30;;;8.20;99.90;;;;;;5018658;28;20433;-44
2021/11/10 02:07:21;;;;;;;6.67;3.47;;;8.30;99.90;;;;;;5017874;28;20428;-45
2021/11/10 02:09:48;;;;;;;5.80;3.87;;;8.20;99.90;;;;;;5020896;28;21042;-44
2021/11/10 02:12:16;;;;;;;3.90;3.20;;;8.00;99.90;;;;;;5013217;28;20432;-44
2021/11/10 02:14:42;;;;;;;5.30;3.40;;;8.30;99.90;;;;;;5008570;28;20426;-44
2021/11/10 02:17:14;;;;;;;4.87;3.77;;;8.20;99.90;;;;;;5014767;28;20487;-45
2021/11/10 02:19:40;;;;;;;4.73;3.73;;;8.30;99.90;;;;;;5020434;28;20444;-49
2021/11/10 02:22:05;;;;;;;5.93;4.10;;;8.20;99.90;;;;;;5024872;28;20769;-44
2021/11/10 02:24:32;;;;;;;4.27;3.10;;;8.30;99.90;;;;;;5017041;28;20318;-46
2021/11/10 02:26:58;;;;;;;4.47;3.47;;;7.80;99.90;;;;;;5008751;28;21278;-46
2021/11/10 02:29:27;;;;;;;9.13;3.70;;;7.60;99.90;;;;;;5009070;28;20560;-45
2021/11/10 02:31:54;;;;;;;5.30;3.73;;;7.80;99.90;;;;;;5008908;28;20800;-44
2021/11/10 02:34:20;;;;;;;5.00;3.53;;;7.80;99.90;;;;;;5011632;28;21197;-46
2021/11/10 02:36:46;;;;;;;4.90;3.70;;;8.10;99.90;;;;;;5021653;28;20417;-46
2021/11/10 02:39:21;;;;;;;6.17;3.60;;;7.90;99.90;;;;;;5014401;28;20882;-45
2021/11/10 02:41:47;;;;;;;4.30;3.90;;;7.50;99.90;;;;;;5008914;28;20198;-49
2021/11/10 02:44:18;;;;;;;4.03;3.73;;;7.60;99.90;;;;;;5016259;28;20468;-45
2021/11/10 02:46:46;;;;;;;5.57;3.50;;;7.70;99.90;;;;;;5008425;28;20414;-49
2021/11/10 02:49:13;;;;;;;4.83;3.33;;;7.50;99.90;;;;;;5009641;28;20497;-44
2021/11/10 02:52:16;;;;;;;3.90;3.50;;;7.60;99.90;;;;;;5021643;28;20419;-47
2021/11/10 02:54:45;;;;;;;5.80;4.00;;;7.70;99.90;;;;;;4972198;28;20441;-45
2021/11/10 02:57:11;;;;;;;4.50;3.97;;;8.00;99.90;;;;;;5020498;28;20812;-44
2021/11/10 02:59:38;;;;;;;4.50;3.30;;;7.90;99.90;;;;;;5010127;28;20484;-47
2021/11/10 03:02:05;;;;;;;5.77;3.50;;;8.00;99.90;;;;;;5008286;28;20431;-44
2021/11/10 03:04:34;;;;;;;4.33;3.27;;;7.80;99.90;;;;;;5008331;28;20473;-48
2021/11/10 03:07:00;;;;;;;5.10;3.67;;;7.80;99.90;;;;;;5019849;28;20441;-46
2021/11/10 03:09:29;;;;;;;4.17;3.50;;;7.60;99.90;;;;;;5019350;28;20469;-44
2021/11/10 03:11:58;;;;;;;4.17;3.77;;;7.50;99.90;;;;;;5008009;28;20433;-46
2021/11/10 03:14:24;;;;;;;7.00;3.83;;;7.50;99.90;;;;;;5006848;28;20880;-46
2021/11/10 03:16:50;;;;;;;5.80;3.27;;;7.50;99.90;;;;;;5013013;28;21084;-44
2021/11/10 03:19:16;;;;;;;3.93;3.47;;;7.60;99.90;;;;;;5012541;28;20449;-45
2021/11/10 03:21:42;;;;;;;5.27;3.30;;;7.40;99.90;;;;;;5012129;28;20195;-49
2021/11/10 03:24:08;;;;;;;5.93;3.90;;;7.50;99.90;;;;;;5009757;28;20859;-47
2021/11/10 03:26:34;;;;;;;3.80;3.40;;;7.20;99.90;;;;;;5007509;28;20261;-45
2021/11/10 03:29:03;;;;;;;4.30;3.57;;;7.10;99.90;;;;;;5018561;28;20462;-46
2021/11/10 03:31:34;;;;;;;4.57;3.87;;;7.10;99.90;;;;;;5007885;28;20423;-44
2021/11/10 03:34:00;;;;;;;7.17;4.23;;;7.40;99.90;;;;;;5012442;28;20464;-44
2021/11/10 03:36:27;;;;;;;4.43;4.00;;;7.30;99.90;;;;;;5014845;28;20484;-44
2021/11/10 03:38:53;;;;;;;6.60;3.80;;;7.30;99.90;;;;;;5018734;28;20801;-44
2021/11/10 03:41:20;;;;;;;4.27;3.47;;;7.30;99.90;;;;;;5007265;28;21182;-45
2021/11/10 03:43:46;;;;;;;4.50;3.70;;;7.30;99.90;;;;;;5013802;28;20469;-45
2021/11/10 03:46:12;;;;;;;4.13;3.60;;;7.70;99.90;;;;;;5007777;28;20426;-45
2021/11/10 03:48:38;;;;;;;6.83;3.50;;;7.30;99.90;;;;;;5007809;28;20512;-44
2021/11/10 03:51:04;;;;;;;4.40;3.20;;;7.40;99.90;;;;;;5018069;28;20963;-44
2021/11/10 03:53:30;;;;;;;5.57;3.37;;;7.50;99.90;;;;;;5020955;28;20186;-45
2021/11/10 03:55:55;;;;;;;7.13;5.20;;;7.50;99.90;;;;;;5025367;28;20198;-47
2021/11/10 03:58:21;;;;;;;6.00;3.70;;;7.80;99.90;;;;;;5019824;28;20441;-45
2021/11/10 04:00:47;;;;;;;8.10;3.63;;;7.60;99.90;;;;;;5007264;28;20677;-46
2021/11/10 04:03:13;;;;;;;5.03;3.53;;;7.70;99.90;;;;;;5007077;28;20615;-47
2021/11/10 04:05:42;;;;;;;5.87;4.10;;;7.70;99.90;;;;;;5012240;28;20404;-46
2021/11/10 04:08:09;;;;;;;4.70;3.43;;;7.60;99.90;;;;;;5022157;28;20560;-44
2021/11/10 04:10:36;;;;;;;4.60;3.50;;;7.60;99.90;;;;;;5007222;28;20449;-44
2021/11/10 04:13:02;;;;;;;5.70;3.90;;;7.50;99.90;;;;;;5012556;28;20417;-46
2021/11/10 04:15:27;;;;;;;5.47;4.17;;;7.70;99.90;;;;;;5012132;28;20448;-45
2021/11/10 04:17:53;;;;;;;3.90;3.23;;;7.50;99.90;;;;;;5012826;28;20560;-45
2021/11/10 04:20:19;;;;;;;5.27;3.60;;;7.50;99.90;;;;;;5014815;28;20639;-44
2021/11/10 04:22:44;;;;;;;5.50;3.83;;;7.60;99.90;;;;;;5015970;28;20195;-44
2021/11/10 04:25:10;;;;;;;4.93;3.60;;;7.70;99.90;;;;;;5010502;28;20203;-48
2021/11/10 04:27:36;;;;;;;5.70;3.80;;;7.60;99.90;;;;;;5008319;28;20546;-45
2021/11/10 04:30:03;;;;;;;4.23;3.10;;;7.40;99.90;;;;;;5012883;28;20227;-45
2021/11/10 04:32:29;;;;;;;4.53;3.90;;;7.40;99.90;;;;;;5006985;28;20522;-46
2021/11/10 04:34:55;;;;;;;7.40;4.27;;;7.40;99.90;;;;;;5010168;28;20524;-44
2021/11/10 04:37:20;;;;;;;3.70;3.30;;;7.50;99.90;;;;;;5022563;28;20730;-45
2021/11/10 04:39:46;;;;;;;4.80;3.77;;;7.40;99.90;;;;;;5024386;28;20191;-47
2021/11/10 04:42:12;;;;;;;5.67;3.40;;;7.50;99.90;;;;;;5006878;28;20194;-44
2021/11/10 04:44:38;;;;;;;5.20;4.10;;;7.50;99.90;;;;;;5009766;28;20517;-45
2021/11/10 04:47:04;;;;;;;4.57;3.63;;;7.70;99.90;;;;;;5006864;28;20476;-48
2021/11/10 04:49:31;;;;;;;6.00;3.50;;;7.30;99.90;;;;;;5008639;28;20468;-49
2021/11/10 04:51:58;;;;;;;4.13;3.73;;;7.30;99.90;;;;;;5017545;28;20457;-46
2021/11/10 04:54:29;;;;;;;5.60;4.30;;;7.40;99.90;;;;;;5019475;28;20427;-45
2021/11/10 04:56:56;;;;;;;4.43;3.97;;;7.30;99.90;;;;;;5026271;28;20920;-45
2021/11/10 04:59:21;;;;;;;5.33;3.60;;;7.40;99.90;;;;;;5024377;28;20425;-46
2021/11/10 05:04:35;;;;;;;3.73;3.00;;;7.20;99.90;;;;;;5007070;28;20191;-45
2021/11/10 05:07:03;;;;;;;4.80;3.60;;;7.00;99.90;;;;;;5012475;28;20859;-45
2021/11/10 05:09:29;;;;;;;4.70;3.60;;;7.00;99.90;;;;;;5020063;28;20469;-45
2021/11/10 05:11:58;;;;;;;4.80;3.40;;;7.10;99.90;;;;;;5010303;28;20516;-44
2021/11/10 05:14:24;;;;;;;4.77;2.93;;;6.70;99.90;;;;;;5016649;28;20429;-45
2021/11/10 05:16:50;;;;;;;5.67;4.43;;;6.60;99.90;;;;;;5015689;28;20463;-44
2021/11/10 05:19:16;;;;;;;4.10;3.30;;;6.90;99.90;;;;;;5011005;28;20465;-45
2021/11/10 05:21:42;;;;;;;5.53;3.83;;;6.90;99.90;;;;;;5019253;28;20491;-44
2021/11/10 05:24:09;;;;;;;4.10;3.03;;;7.10;99.90;;;;;;5020999;28;20429;-44
2021/11/10 05:26:35;;;;;;;6.10;3.63;;;6.90;99.90;;;;;;5017455;28;20214;-45
2021/11/10 05:29:01;;;;;;;4.10;3.70;;;7.00;99.90;;;;;;5013090;28;20526;-46
2021/11/10 05:31:26;;;;;;;4.03;3.53;;;7.00;99.90;;;;;;5009909;28;20431;-45
2021/11/10 05:33:52;;;;;;;7.00;3.60;;;6.80;99.90;;;;;;5009013;28;20225;-45
2021/11/10 05:36:18;;;;;;;6.93;3.50;;;6.90;99.90;;;;;;5014297;28;20219;-46
2021/11/10 05:38:44;;;;;;;4.60;3.50;;;6.80;99.90;;;;;;5017677;28;20222;-44
2021/11/10 05:41:09;;;;;;;5.40;4.07;;;6.70;99.90;;;;;;5009700;28;20195;-46
2021/11/10 05:43:35;;;;;;;5.13;4.20;;;6.80;99.90;;;;;;5013410;28;20437;-45
2021/11/10 05:46:02;;;;;;;4.80;3.90;;;6.80;99.90;;;;;;5017330;28;20560;-45
2021/11/10 05:48:28;;;;;;;4.27;3.60;;;6.90;99.90;;;;;;5017717;28;20477;-45
2021/11/10 05:50:54;;;;;;;4.27;3.50;;;7.20;99.90;;;;;;5025926;28;20944;-45
2021/11/10 05:53:19;;;;;;;5.27;3.63;;;6.90;99.90;;;;;;5012795;28;20658;-44
2021/11/10 05:55:46;;;;;;;4.03;3.40;;;7.00;99.90;;;;;;5025039;28;20677;-45
2021/11/10 05:58:13;;;;;;;3.97;3.10;;;7.30;99.90;;;;;;5027551;28;20293;-44
2021/11/10 06:00:39;;;;;;;4.63;3.73;;;7.00;99.90;;;;;;5015008;28;20441;-45
2021/11/10 06:03:04;;;;;;;4.13;3.73;;;7.10;99.90;;;;;;5008436;28;20442;-47
2021/11/10 06:05:30;;;;;;;4.83;3.47;;;7.20;99.90;;;;;;5012580;28;20684;-45
2021/11/10 06:07:57;;;;;;;7.37;3.70;;;7.10;99.90;;;;;;5022180;28;20194;-45
2021/11/10 06:10:22;;;;;;;4.90;3.73;;;6.90;99.90;;;;;;5026798;28;20758;-44
2021/11/10 06:12:49;;;;;;;5.83;3.90;;;6.90;99.90;;;;;;5009413;28;20476;-47
2021/11/10 06:15:15;;;;;;;3.90;3.50;;;6.80;99.90;;;;;;5011954;28;20716;-46
2021/11/10 06:17:41;;;;;;;4.80;4.00;;;6.60;99.90;;;;;;5015002;28;20445;-49
2021/11/10 06:20:08;;;;;;;4.80;4.30;;;6.90;99.90;;;;;;5010040;28;20969;-50
2021/11/10 06:22:35;;;;;;;4.60;3.60;;;7.00;99.90;;;;;;5022018;28;20174;-49
2021/11/10 06:25:02;;;;;;;6.67;4.67;;;7.10;99.90;;;;;;5020585;28;20432;-46
2021/11/10 06:27:27;;;;;;;7.57;3.90;;;7.00;99.90;;;;;;5008522;28;20512;-45
2021/11/10 06:29:53;;;;;;;4.30;3.87;;;7.00;99.90;;;;;;5019206;28;21089;-45
2021/11/10 06:32:19;;;;;;;4.63;4.00;;;6.90;99.90;;;;;;5019875;28;20221;-46
2021/11/10 06:34:45;;;;;;;5.80;4.20;;;6.70;99.90;;;;;;5013990;28;20498;-45
2021/11/10 06:37:11;;;;;;;6.90;3.93;;;6.30;99.90;;;;;;5022162;28;20473;-45
2021/11/10 06:39:37;;;;;;;4.90;3.80;;;6.20;99.90;;;;;;5025706;28;20210;-46
2021/11/10 06:42:04;;;;;;;11.43;5.33;;;6.40;99.90;;;;;;5008252;28;20729;-45
2021/11/10 06:44:30;;;;;;;8.20;4.57;;;6.20;99.90;;;;;;5014205;28;20205;-45
2021/11/10 06:46:59;;;;;;;11.17;4.80;;;6.00;99.90;;;;;;5017726;28;20429;-45
2021/11/10 06:49:28;;;;;;;5.60;4.67;;;6.30;99.90;;;;;;5022504;28;20217;-45
2021/11/10 06:51:55;;;;;;;6.87;4.60;;;6.00;99.90;;;;;;5017201;28;20494;-46
2021/11/10 06:54:21;;;;;;;6.87;4.97;;;6.20;99.90;;;;;;5018916;28;20791;-45
2021/11/10 06:56:49;;;;;;;5.80;4.90;;;5.90;99.90;;;;;;5019796;28;20426;-45
2021/11/10 06:59:18;;;;;;;7.50;4.60;;;6.20;99.90;;;;;;5011249;28;20433;-45
2021/11/10 07:01:43;;;;;;;5.80;4.50;;;6.20;99.90;;;;;;5017281;28;20433;-45
2021/11/10 07:04:09;;;;;;;8.50;4.90;;;6.10;99.90;;;;;;5024632;28;20488;-45
2021/11/10 07:06:36;;;;;;;5.50;4.80;;;6.10;99.90;;;;;;5022583;28;20273;-44
2021/11/10 07:09:03;;;;;;;7.97;5.40;;;6.30;99.90;;;;;;5023736;28;20210;-47
2021/11/10 07:11:28;;;;;;;5.87;4.57;;;6.30;99.90;;;;;;5010470;28;20523;-45
2021/11/10 07:13:54;;;;;;;7.47;5.30;;;6.10;99.90;;;;;;5023350;28;20461;-45
2021/11/10 07:16:20;;;;;;;6.80;4.90;;;6.20;99.90;;;;;;5020222;28;20441;-45
2021/11/10 07:18:46;;;;;;;6.90;5.13;;;6.20;99.90;;;;;;5022966;28;20201;-47
2021/11/10 07:21:11;;;;;;;7.00;5.50;;;5.90;99.90;;;;;;5021322;28;20209;-50
2021/11/10 07:23:37;;;;;;;9.07;4.70;;;6.50;99.90;;;;;;5021867;28;20198;-47
2021/11/10 07:26:03;;;;;;;6.43;4.47;;;6.50;99.90;;;;;;5015596;28;20334;-45
2021/11/10 07:28:29;;;;;;;7.43;5.17;;;6.70;99.90;;;;;;5007509;28;20226;-44
2021/11/10 07:30:55;;;;;;;6.67;4.40;;;6.50;99.90;;;;;;5015919;28;20802;-45
2021/11/10 07:33:20;;;;;;;8.00;5.37;;;6.70;99.90;;;;;;5023694;28;20186;-47
2021/11/10 07:35:47;;;;;;;4.90;4.40;;;6.80;99.90;;;;;;5030712;28;20189;-45
2021/11/10 07:38:14;;;;;;;7.30;5.27;;;6.60;99.90;;;;;;5008267;28;20179;-45
2021/11/10 07:40:40;;;;;;;7.03;4.37;;;6.60;99.90;;;;;;5024594;28;20480;-45
2021/11/10 07:43:06;;;;;;;7.03;5.00;;;6.40;99.90;;;;;;5011110;28;20448;-47
2021/11/10 07:45:36;;;;;;;5.60;4.33;;;6.50;99.90;;;;;;5011464;28;20444;-47
2021/11/10 07:48:06;;;;;;;6.37;4.43;;;6.30;99.90;;;;;;5007683;28;20421;-44
2021/11/10 07:50:33;;;;;;;7.33;4.60;;;6.30;99.90;;;;;;5027838;28;20425;-45
2021/11/10 07:53:00;;;;;;;7.17;4.90;;;6.50;99.90;;;;;;5022056;28;20792;-45
2021/11/10 07:55:27;;;;;;;8.20;5.60;;;6.70;99.90;;;;;;5018227;28;20433;-44
2021/11/10 07:57:53;;;;;;;6.17;4.93;;;6.70;99.90;;;;;;5007143;28;20880;-44
2021/11/10 08:00:21;;;;;;;5.93;4.70;;;6.60;99.90;;;;;;5024065;28;20531;-46
2021/11/10 08:02:47;;;;;;;9.90;5.57;;;6.50;99.90;;;;;;5011219;28;20453;-44
2021/11/10 08:05:14;;;;;;;7.10;5.00;;;6.80;99.90;;;;;;5023258;28;20566;-46
2021/11/10 08:07:41;;;;;;;6.30;5.27;;;6.50;99.90;;;;;;5024445;28;20452;-45
2021/11/10 08:10:08;;;;;;;8.60;4.90;;;6.60;99.90;;;;;;5014991;28;20615;-44
2021/11/10 08:12:36;;;;;;;10.97;5.47;;;6.60;99.90;;;;;;5011681;28;20421;-45
2021/11/10 08:15:07;;;;;;;7.77;5.37;;;6.90;99.90;;;;;;5020749;28;20437;-45
2021/11/10 08:17:35;;;;;;;7.40;5.37;;;6.80;99.90;;;;;;5012438;28;20492;-46
2021/11/10 08:20:07;;;;;;;8.40;5.70;;;7.00;99.90;;;;;;5007321;28;20438;-45
2021/11/10 08:22:33;;;;;;;8.17;5.90;;;6.90;99.90;;;;;;5018288;28;20444;-47
2021/11/10 08:25:00;;;;;;;11.20;5.90;;;6.90;99.90;;;;;;5022279;28;20444;-45
2021/11/10 08:27:26;;;;;;;9.77;5.87;;;7.10;99.90;;;;;;5017838;28;20438;-44
2021/11/10 08:29:51;;;;;;;8.20;6.07;;;7.10;99.90;;;;;;5010701;28;20465;-46
2021/11/10 08:32:18;;;;;;;8.50;5.63;;;7.20;99.90;;;;;;5006925;28;20437;-45
2021/11/10 08:34:44;;;;;;;9.67;6.77;;;7.30;99.90;;;;;;5006531;28;20474;-45
2021/11/10 08:37:10;;;;;;;8.97;5.63;;;7.80;99.90;;;;;;5014646;28;20437;-44
2021/11/10 08:39:36;;;;;;;8.30;5.00;;;7.80;99.90;;;;;;5022557;28;20516;-47
2021/11/10 08:42:04;;;;;;;7.90;5.63;;;8.40;99.90;;;;;;5013605;28;20278;-46
2021/11/10 08:44:32;;;;;;;10.20;6.30;;;8.60;99.90;;;;;;5008410;28;20179;-47
2021/11/10 08:46:58;;;;;;;8.27;5.50;;;9.00;99.90;;;;;;5022400;28;20529;-45
2021/11/10 08:49:24;;;;;;;8.53;6.03;;;9.30;99.90;;;;;;5010372;28;20469;-48
2021/11/10 08:51:50;;;;;;;9.57;5.90;;;9.40;99.90;;;;;;5013212;28;20432;-45
2021/11/10 08:54:16;;;;;;;9.37;5.70;;;9.70;99.90;;;;;;5017135;28;20955;-46
2021/11/10 08:56:41;;;;;;;7.23;6.17;;;9.70;99.90;;;;;;5019035;28;20470;-46
2021/11/10 08:59:07;;;;;;;8.73;6.10;;;9.70;99.90;;;;;;5010512;28;20681;-45
2021/11/10 09:01:34;;;;;;;8.93;6.37;;;9.70;99.90;;;;;;5009032;28;20237;-45
2021/11/10 09:04:00;;;;;;;7.43;5.90;;;9.70;99.90;;;;;;5010170;28;20209;-45
2021/11/10 09:06:26;;;;;;;8.27;6.17;;;9.80;99.90;;;;;;5010812;28;20441;-46
2021/11/10 09:08:52;;;;;;;17.83;5.90;;;9.80;99.90;;;;;;5022891;28;20514;-46
2021/11/10 09:11:18;;;;;;;8.87;6.33;;;9.70;99.90;;;;;;5018094;28;20424;-46
2021/11/10 09:13:44;;;;;;;6.93;5.23;;;9.90;99.90;;;;;;5008048;28;20790;-48
2021/11/10 09:16:11;;;;;;;7.80;5.70;;;10.00;99.90;;;;;;5015030;28;20430;-48
2021/11/10 09:18:38;;;;;;;8.70;5.77;;;10.20;99.90;;;;;;5015103;28;20853;-46
2021/11/10 09:21:05;;;;;;;7.87;5.50;;;10.50;99.90;;;;;;5010170;28;20434;-45
2021/11/10 09:23:31;;;;;;;7.83;5.57;;;10.80;99.90;;;;;;5019533;28;20468;-46
2021/11/10 09:25:57;;;;;;;8.40;6.13;;;10.60;99.90;;;;;;5026031;28;20494;-46
2021/11/10 09:28:23;;;;;;;6.87;5.30;;;11.10;99.90;;;;;;5015308;28;20474;-45
2021/11/10 09:30:53;;;;;;;8.73;5.83;;;11.50;99.90;;;;;;5011324;28;20526;-46
2021/11/10 09:33:20;;;;;;;9.20;5.27;;;11.70;99.90;;;;;;5008782;28;20191;-46
2021/11/10 09:35:46;;;;;;;8.57;5.57;;;12.10;99.90;;;;;;5010274;28;20410;-46
2021/11/10 09:38:12;;;;;;;9.10;5.70;;;12.40;99.90;;;;;;5015577;28;20444;-46
2021/11/10 09:40:41;;;;;;;8.40;6.07;;;12.50;99.90;;;;;;5019897;28;20426;-46
2021/11/10 09:43:07;;;;;;;7.63;5.30;;;12.90;99.90;;;;;;5013628;28;20467;-46
2021/11/10 09:45:35;;;;;;;9.13;6.00;;;13.00;99.90;;;;;;5015291;28;20421;-46
2021/11/10 09:48:07;;;;;;;10.00;5.80;;;13.00;99.90;;;;;;5013409;28;20488;-46
2021/11/10 09:50:35;;;;;;;7.80;5.53;;;12.90;99.70;;;;;;5009683;28;20421;-46
2021/11/10 09:53:03;;;;;;;8.73;6.63;;;12.70;99.90;;;;;;5008814;28;20844;-47
2021/11/10 09:55:30;;;;;;;8.77;5.87;;;12.40;99.90;;;;;;5019822;28;20547;-50
2021/11/10 09:57:58;;;;;;;8.33;6.00;;;12.40;99.90;;;;;;5010556;28;20449;-46
2021/11/10 10:00:52;;;;;;;6.93;5.80;;;12.60;99.90;;;;;;5012725;28;20490;-48
2021/11/10 10:03:18;;;;;;;11.50;6.10;;;12.90;99.90;;;;;;5008738;28;20437;-49
2021/11/10 10:05:48;;;;;;;10.57;6.37;;;13.00;99.90;;;;;;5009177;28;20429;-45
2021/11/10 10:08:15;;;;;;;10.90;6.80;;;13.00;99.90;;;;;;5009293;28;20437;-46
2021/11/10 10:10:42;;;;;;;9.17;6.40;;;13.20;99.60;;;;;;5018590;28;20424;-45
2021/11/10 10:13:09;;;;;;;11.33;7.13;;;13.30;99.80;;;;;;5019594;28;20434;-46
2021/11/10 10:15:36;;;;;;;9.67;5.93;;;13.30;98.90;;;;;;5011606;28;20435;-47
2021/11/10 10:18:11;;;;;;;10.10;8.30;;;13.40;99.40;;;;;;5015136;28;20422;-46
2021/11/10 10:20:38;;;;;;;10.00;6.50;;;13.30;98.90;;;;;;5008919;28;20929;-48
2021/11/10 10:23:10;;;;;;;9.13;7.77;;;13.00;98.90;;;;;;5012072;28;20524;-47
2021/11/10 10:25:48;;;;;;;9.63;6.20;;;12.60;99.70;;;;;;5021061;28;20441;-47
2021/11/10 10:28:29;;;;;;;8.80;6.20;;;12.30;99.60;;;;;;5009273;28;20430;-46
2021/11/10 10:31:01;;;;;;;8.37;6.57;;;11.90;99.90;;;;;;5016448;28;20515;-46
2021/11/10 10:33:32;;;;;;;8.57;6.43;;;11.90;99.90;;;;;;5011453;28;20803;-46
2021/11/10 10:36:07;;;;;;;7.60;5.80;;;12.00;99.90;;;;;;5007196;28;21026;-47
2021/11/10 10:38:38;;;;;;;7.07;5.33;;;12.00;99.90;;;;;;5016978;28;20508;-47
2021/11/10 10:41:07;;;;;;;8.50;5.27;;;11.80;99.90;;;;;;5015760;28;20482;-47
2021/11/10 10:43:43;;;;;;;10.70;6.00;;;12.10;99.90;;;;;;5008119;28;20441;-47
2021/11/10 10:46:09;;;;;;;8.27;6.23;;;12.00;99.90;;;;;;5015893;28;20433;-46
2021/11/10 10:48:36;;;;;;;10.70;6.20;;;11.90;99.90;;;;;;5008962;28;20466;-46
2021/11/10 10:51:12;;;;;;;7.00;5.07;;;11.90;99.90;;;;;;5008980;28;20437;-47
2021/11/10 10:53:52;;;;;;;8.40;6.07;;;11.80;99.90;;;;;;5018821;28;20445;-47
2021/11/10 10:56:18;;;;;;;10.40;5.40;;;11.60;99.90;;;;;;5016280;28;20475;-45
2021/11/10 10:58:45;;;;;;;9.57;5.83;;;11.80;99.90;;;;;;5007918;28;20967;-47
2021/11/10 11:01:21;;;;;;;10.03;5.93;;;11.70;99.90;;;;;;5014061;28;20680;-46
2021/11/10 11:04:02;;;;;;;8.20;5.77;;;11.80;99.90;;;;;;5007570;28;20434;-49
2021/11/10 11:06:38;;;;;;;7.10;5.00;;;11.70;99.90;;;;;;5007434;28;20422;-45
2021/11/10 11:09:26;;;;;;;9.60;5.73;;;11.90;99.90;;;;;;5019740;28;20468;-46
2021/11/10 11:12:07;;;;;;;5.83;5.03;;;11.90;99.90;;;;;;5024328;28;20439;-47
2021/11/10 11:14:44;;;;;;;7.97;4.77;;;11.90;99.90;;;;;;5010482;28;20939;-46
2021/11/10 11:17:18;;;;;;;5.70;4.90;;;11.80;99.90;;;;;;5017246;28;20520;-46
2021/11/10 11:20:10;;;;;;;8.57;5.90;;;11.80;99.90;;;;;;5008141;28;21052;-47
2021/11/10 11:22:50;;;;;;;8.37;5.40;;;11.60;99.90;;;;;;5010220;28;20432;-46
2021/11/10 11:25:19;;;;;;;6.87;5.63;;;11.60;99.90;;;;;;5019274;28;20532;-46
2021/11/10 11:27:57;;;;;;;8.57;6.07;;;11.60;99.90;;;;;;5014952;28;20509;-45
2021/11/10 11:30:24;;;;;;;7.53;5.53;;;11.70;99.90;;;;;;5007792;28;20481;-49
2021/11/10 11:32:55;;;;;;;9.17;5.93;;;11.60;99.90;;;;;;5018211;28;20495;-46
2021/11/10 11:35:36;;;;;;;9.93;6.17;;;11.60;99.90;;;;;;5007822;28;20445;-47
2021/11/10 11:38:03;;;;;;;6.63;5.10;;;11.50;99.90;;;;;;5011315;28;20479;-46
2021/11/10 11:40:32;;;;;;;7.30;5.53;;;11.50;99.90;;;;;;5020514;28;20500;-45
2021/11/10 11:42:58;;;;;;;5.40;4.90;;;11.60;99.90;;;;;;5014258;28;20457;-46
2021/11/10 11:45:26;;;;;;;8.90;5.10;;;11.70;99.90;;;;;;5007542;28;20836;-46
2021/11/10 11:47:56;;;;;;;8.20;6.10;;;11.60;99.90;;;;;;5014504;28;20908;-47
2021/11/10 11:50:24;;;;;;;10.90;6.10;;;11.50;99.90;;;;;;5007445;28;20565;-48
2021/11/10 11:52:50;;;;;;;8.60;6.47;;;11.50;99.90;;;;;;5011365;28;20486;-46
2021/11/10 11:55:38;;;;;;;8.60;5.17;;;11.60;99.90;;;;;;5019737;28;20437;-48
2021/11/10 11:58:08;;;;;;;8.17;6.27;;;11.60;99.90;;;;;;5007354;28;20528;-47
2021/11/10 12:01:00;;;;;;;10.10;6.70;;;11.70;99.90;;;;;;5007238;28;20475;-49
2021/11/10 12:03:27;;;;;;;10.83;6.27;;;12.00;99.90;;;;;;5022189;28;20436;-47
2021/11/10 12:06:02;;;;;;;7.63;5.93;;;11.70;99.90;;;;;;5027054;28;20456;-49
2021/11/10 12:09:00;;;;;;;12.50;6.10;;;11.80;99.90;;;;;;5025785;28;20468;-47
2021/11/10 12:11:27;;;;;;;8.10;6.43;;;11.90;99.90;;;;;;5016193;28;20429;-50
2021/11/10 12:13:59;;;;;;;7.47;6.00;;;11.90;99.90;;;;;;5005588;28;20441;-46
2021/11/10 12:16:25;;;;;;;7.50;5.70;;;11.90;99.90;;;;;;5010107;28;20991;-46
2021/11/10 12:19:12;;;;;;;9.23;6.30;;;12.00;99.90;;;;;;5022813;28;20564;-49
2021/11/10 12:21:44;;;;;;;9.50;6.60;;;11.90;99.90;;;;;;5011014;28;20440;-46
2021/11/10 12:24:12;;;;;;;8.73;5.90;;;11.80;99.90;;;;;;5012406;28;20438;-45
2021/11/10 12:27:04;;;;;;;11.27;6.90;;;11.80;99.90;;;;;;5018775;28;20426;-45
2021/11/10 12:29:40;;;;;;;10.00;6.63;;;11.80;99.90;;;;;;5011342;28;20465;-47
2021/11/10 12:32:06;;;;;;;9.03;6.33;;;11.90;99.90;;;;;;5019219;28;20680;-45
2021/11/10 12:34:36;;;;;;;7.23;5.63;;;11.90;99.90;;;;;;5013300;28;20433;-47
2021/11/10 12:37:08;;;;;;;8.40;5.20;;;11.90;99.90;;;;;;5010676;28;20434;-47
2021/11/10 12:39:40;;;;;;;7.87;6.07;;;11.80;99.90;;;;;;5019400;28;20970;-46
2021/11/10 12:42:08;;;;;;;9.60;5.67;;;11.70;99.90;;;;;;5016606;28;20425;-46
2021/11/10 12:44:48;;;;;;;9.07;6.00;;;11.70;99.90;;;;;;5010302;28;20607;-50
2021/11/10 12:47:37;;;;;;;8.60;6.70;;;11.70;99.90;;;;;;5017377;28;20433;-45
2021/11/10 12:50:26;;;;;;;8.00;6.00;;;11.70;99.90;;;;;;5010781;28;20890;-45
2021/11/10 12:52:52;;;;;;;9.77;5.90;;;11.70;99.90;;;;;;5018405;28;20433;-46
2021/11/10 12:55:21;;;;;;;10.17;6.73;;;11.90;99.90;;;;;;5022829;28;20575;-45
2021/11/10 12:57:48;;;;;;;6.97;6.13;;;12.00;99.90;;;;;;5024354;28;20476;-49
2021/11/10 13:00:16;;;;;;;7.00;5.30;;;12.00;99.90;;;;;;5015031;28;20484;-46
2021/11/10 13:02:44;;;;;;;9.17;5.80;;;12.00;99.90;;;;;;5011244;28;20465;-48